sensor_id;sensor_type;location;lat;lon;timestamp;temperature;humidity
8862;DHT22;4799;50.996;4.754;2023-11-21T00:01:02;9.00;99.90
8862;DHT22;4799;50.996;4.754;2023-11-21T00:03:30;9.00;99.90
8862;DHT22;4799;50.996;4.754;2023-11-21T00:05:56;9.00;99.90
8862;DHT22;4799;50.996;4.754;2023-11-21T00:08:22;9.00;99.90
8862;DHT22;4799;50.996;4.754;2023-11-21T00:10:47;9.00;99.90
8862;DHT22;4799;50.996;4.754;2023-11-21T00:13:14;9.00;99.90
8862;DHT22;4799;50.996;4.754;2023-11-21T00:15:39;9.00;99.90
8862;DHT22;4799;50.996;4.754;2023-11-21T00:18:06;9.10;99.90
8862;DHT22;4799;50.996;4.754;2023-11-21T00:20:32;9.10;99.90
8862;DHT22;4799;50.996;4.754;2023-11-21T00:22:58;9.10;99.90
8862;DHT22;4799;50.996;4.754;2023-11-21T00:25:25;9.10;99.90
8862;DHT22;4799;50.996;4.754;2023-11-21T00:27:51;9.10;99.90
8862;DHT22;4799;50.996;4.754;2023-11-21T00:30:17;9.00;99.90
8862;DHT22;4799;50.996;4.754;2023-11-21T00:32:42;9.00;99.90
8862;DHT22;4799;50.996;4.754;2023-11-21T00:35:09;8.90;99.90
8862;DHT22;4799;50.996;4.754;2023-11-21T00:37:34;8.80;99.90
8862;DHT22;4799;50.996;4.754;2023-11-21T00:40:00;8.70;99.90
8862;DHT22;4799;50.996;4.754;2023-11-21T00:42:30;8.70;99.90
8862;DHT22;4799;50.996;4.754;2023-11-21T00:44:57;8.50;99.90
8862;DHT22;4799;50.996;4.754;2023-11-21T00:47:23;8.50;99.90
8862;DHT22;4799;50.996;4.754;2023-11-21T00:49:49;8.40;99.90
8862;DHT22;4799;50.996;4.754;2023-11-21T00:52:14;8.30;99.90
8862;DHT22;4799;50.996;4.754;2023-11-21T00:54:41;8.30;99.90
8862;DHT22;4799;50.996;4.754;2023-11-21T00:57:07;8.20;99.90
8862;DHT22;4799;50.996;4.754;2023-11-21T00:59:34;8.20;99.90
8862;DHT22;4799;50.996;4.754;2023-11-21T01:02:00;8.20;99.90
8862;DHT22;4799;50.996;4.754;2023-11-21T01:04:27;8.10;99.90
8862;DHT22;4799;50.996;4.754;2023-11-21T01:06:53;8.10;99.90
8862;DHT22;4799;50.996;4.754;2023-11-21T01:09:19;8.10;99.90
8862;DHT22;4799;50.996;4.754;2023-11-21T01:11:44;8.00;99.90
8862;DHT22;4799;50.996;4.754;2023-11-21T01:14:10;8.00;99.90
8862;DHT22;4799;50.996;4.754;2023-11-21T01:16:36;8.00;99.90
8862;DHT22;4799;50.996;4.754;2023-11-21T01:19:02;8.00;99.90
8862;DHT22;4799;50.996;4.754;2023-11-21T01:21:27;8.00;99.90
8862;DHT22;4799;50.996;4.754;2023-11-21T01:23:54;8.00;99.90
8862;DHT22;4799;50.996;4.754;2023-11-21T01:26:21;7.90;99.90
8862;DHT22;4799;50.996;4.754;2023-11-21T01:28:46;8.00;99.90
8862;DHT22;4799;50.996;4.754;2023-11-21T01:31:15;8.00;99.90
8862;DHT22;4799;50.996;4.754;2023-11-21T01:33:41;8.00;99.90
8862;DHT22;4799;50.996;4.754;2023-11-21T01:36:07;7.90;99.90
8862;DHT22;4799;50.996;4.754;2023-11-21T01:38:33;7.90;99.90
8862;DHT22;4799;50.996;4.754;2023-11-21T01:40:58;7.90;99.90
8862;DHT22;4799;50.996;4.754;2023-11-21T01:43:26;7.90;99.90
8862;DHT22;4799;50.996;4.754;2023-11-21T01:45:54;7.90;99.90
8862;DHT22;4799;50.996;4.754;2023-11-21T01:48:23;7.90;99.90
8862;DHT22;4799;50.996;4.754;2023-11-21T01:50:49;7.90;99.90
8862;DHT22;4799;50.996;4.754;2023-11-21T01:53:15;7.80;99.90
8862;DHT22;4799;50.996;4.754;2023-11-21T01:55:45;7.70;99.90
8862;DHT22;4799;50.996;4.754;2023-11-21T01:58:11;7.70;99.90
8862;DHT22;4799;50.996;4.754;2023-11-21T02:00:38;7.60;99.90
8862;DHT22;4799;50.996;4.754;2023-11-21T02:03:04;7.50;99.90
8862;DHT22;4799;50.996;4.754;2023-11-21T02:05:30;7.50;99.90
8862;DHT22;4799;50.996;4.754;2023-11-21T02:07:55;7.40;99.90
8862;DHT22;4799;50.996;4.754;2023-11-21T02:10:22;7.40;99.90
8862;DHT22;4799;50.996;4.754;2023-11-21T02:12:51;7.40;99.90
8862;DHT22;4799;50.996;4.754;2023-11-21T02:15:18;7.40;99.90
8862;DHT22;4799;50.996;4.754;2023-11-21T02:17:47;7.50;99.90
8862;DHT22;4799;50.996;4.754;2023-11-21T02:20:17;7.50;99.90
8862;DHT22;4799;50.996;4.754;2023-11-21T02:22:48;7.60;99.90
8862;DHT22;4799;50.996;4.754;2023-11-21T02:25:14;7.70;99.90
8862;DHT22;4799;50.996;4.754;2023-11-21T02:27:40;7.80;99.90
8862;DHT22;4799;50.996;4.754;2023-11-21T02:30:06;7.80;99.90
8862;DHT22;4799;50.996;4.754;2023-11-21T02:32:33;7.90;99.90
8862;DHT22;4799;50.996;4.754;2023-11-21T02:35:00;7.90;99.90
8862;DHT22;4799;50.996;4.754;2023-11-21T02:37:27;7.90;99.90
8862;DHT22;4799;50.996;4.754;2023-11-21T02:39:53;8.00;99.90
8862;DHT22;4799;50.996;4.754;2023-11-21T02:42:19;8.00;99.90
8862;DHT22;4799;50.996;4.754;2023-11-21T02:44:44;8.00;99.90
8862;DHT22;4799;50.996;4.754;2023-11-21T02:47:10;8.00;99.90
8862;DHT22;4799;50.996;4.754;2023-11-21T02:49:36;7.90;99.90
8862;DHT22;4799;50.996;4.754;2023-11-21T02:52:02;7.90;99.90
8862;DHT22;4799;50.996;4.754;2023-11-21T02:54:27;7.90;99.90
8862;DHT22;4799;50.996;4.754;2023-11-21T02:56:53;7.90;99.90
8862;DHT22;4799;50.996;4.754;2023-11-21T02:59:19;7.90;99.90
8862;DHT22;4799;50.996;4.754;2023-11-21T03:01:45;7.90;99.90
8862;DHT22;4799;50.996;4.754;2023-11-21T03:04:12;7.90;99.90
8862;DHT22;4799;50.996;4.754;2023-11-21T03:06:43;7.90;99.90
8862;DHT22;4799;50.996;4.754;2023-11-21T03:09:10;7.90;99.90
8862;DHT22;4799;50.996;4.754;2023-11-21T03:11:37;7.90;99.90
8862;DHT22;4799;50.996;4.754;2023-11-21T03:14:03;7.90;99.90
8862;DHT22;4799;50.996;4.754;2023-11-21T03:16:29;8.00;99.90
8862;DHT22;4799;50.996;4.754;2023-11-21T03:18:55;8.00;99.90
8862;DHT22;4799;50.996;4.754;2023-11-21T03:21:20;8.00;99.90
8862;DHT22;4799;50.996;4.754;2023-11-21T03:23:46;8.10;99.90
8862;DHT22;4799;50.996;4.754;2023-11-21T03:26:12;8.10;99.90
8862;DHT22;4799;50.996;4.754;2023-11-21T03:28:38;8.10;99.90
8862;DHT22;4799;50.996;4.754;2023-11-21T03:31:05;8.10;99.90
8862;DHT22;4799;50.996;4.754;2023-11-21T03:33:32;8.10;99.90
8862;DHT22;4799;50.996;4.754;2023-11-21T03:35:58;8.10;99.90
8862;DHT22;4799;50.996;4.754;2023-11-21T03:38:24;8.20;99.90
8862;DHT22;4799;50.996;4.754;2023-11-21T03:40:49;8.20;99.90
8862;DHT22;4799;50.996;4.754;2023-11-21T03:43:16;8.20;99.90
8862;DHT22;4799;50.996;4.754;2023-11-21T03:45:41;8.20;99.90
8862;DHT22;4799;50.996;4.754;2023-11-21T03:48:07;8.20;99.90
8862;DHT22;4799;50.996;4.754;2023-11-21T03:50:34;8.30;99.90
8862;DHT22;4799;50.996;4.754;2023-11-21T03:53:00;8.30;99.90
8862;DHT22;4799;50.996;4.754;2023-11-21T03:55:26;8.30;99.90
8862;DHT22;4799;50.996;4.754;2023-11-21T03:57:52;8.30;99.90
8862;DHT22;4799;50.996;4.754;2023-11-21T04:00:18;8.30;99.90
8862;DHT22;4799;50.996;4.754;2023-11-21T04:02:45;8.30;99.90
8862;DHT22;4799;50.996;4.754;2023-11-21T04:05:11;8.30;99.90
8862;DHT22;4799;50.996;4.754;2023-11-21T04:07:37;8.30;99.90
8862;DHT22;4799;50.996;4.754;2023-11-21T04:10:05;8.30;99.90
8862;DHT22;4799;50.996;4.754;2023-11-21T04:12:34;8.30;99.90
8862;DHT22;4799;50.996;4.754;2023-11-21T04:15:00;8.40;99.90
8862;DHT22;4799;50.996;4.754;2023-11-21T04:17:25;8.40;99.90
8862;DHT22;4799;50.996;4.754;2023-11-21T04:19:51;8.40;99.90
8862;DHT22;4799;50.996;4.754;2023-11-21T04:22:17;8.40;99.90
8862;DHT22;4799;50.996;4.754;2023-11-21T04:24:43;8.40;99.90
8862;DHT22;4799;50.996;4.754;2023-11-21T04:27:08;8.50;99.90
8862;DHT22;4799;50.996;4.754;2023-11-21T04:29:34;8.50;99.90
8862;DHT22;4799;50.996;4.754;2023-11-21T04:32:01;8.50;99.90
8862;DHT22;4799;50.996;4.754;2023-11-21T04:34:28;8.50;99.90
8862;DHT22;4799;50.996;4.754;2023-11-21T04:36:56;8.60;99.90
8862;DHT22;4799;50.996;4.754;2023-11-21T04:39:22;8.60;99.90
8862;DHT22;4799;50.996;4.754;2023-11-21T04:41:49;8.60;99.90
8862;DHT22;4799;50.996;4.754;2023-11-21T04:44:15;8.60;99.90
8862;DHT22;4799;50.996;4.754;2023-11-21T04:46:41;8.70;99.90
8862;DHT22;4799;50.996;4.754;2023-11-21T04:49:07;8.70;99.90
8862;DHT22;4799;50.996;4.754;2023-11-21T04:51:33;8.70;99.90
8862;DHT22;4799;50.996;4.754;2023-11-21T04:53:59;8.70;99.90
8862;DHT22;4799;50.996;4.754;2023-11-21T04:56:25;8.70;99.90
8862;DHT22;4799;50.996;4.754;2023-11-21T04:58:50;8.70;99.90
8862;DHT22;4799;50.996;4.754;2023-11-21T05:01:16;8.70;99.90
8862;DHT22;4799;50.996;4.754;2023-11-21T05:03:42;8.80;99.90
8862;DHT22;4799;50.996;4.754;2023-11-21T05:06:10;8.80;99.90
8862;DHT22;4799;50.996;4.754;2023-11-21T05:08:36;8.80;99.90
8862;DHT22;4799;50.996;4.754;2023-11-21T05:11:02;8.80;99.90
8862;DHT22;4799;50.996;4.754;2023-11-21T05:13:28;8.80;99.90
8862;DHT22;4799;50.996;4.754;2023-11-21T05:15:55;8.80;99.90
8862;DHT22;4799;50.996;4.754;2023-11-21T05:18:22;8.80;99.90
8862;DHT22;4799;50.996;4.754;2023-11-21T05:20:48;8.80;99.90
8862;DHT22;4799;50.996;4.754;2023-11-21T05:23:14;8.90;99.90
8862;DHT22;4799;50.996;4.754;2023-11-21T05:25:40;8.90;99.90
8862;DHT22;4799;50.996;4.754;2023-11-21T05:28:07;8.90;99.90
8862;DHT22;4799;50.996;4.754;2023-11-21T05:30:32;8.90;99.90
8862;DHT22;4799;50.996;4.754;2023-11-21T05:32:58;8.90;99.90
8862;DHT22;4799;50.996;4.754;2023-11-21T05:35:24;8.90;99.90
8862;DHT22;4799;50.996;4.754;2023-11-21T05:37:49;8.90;99.90
8862;DHT22;4799;50.996;4.754;2023-11-21T05:40:15;8.90;99.90
8862;DHT22;4799;50.996;4.754;2023-11-21T05:42:41;8.90;99.90
8862;DHT22;4799;50.996;4.754;2023-11-21T05:45:08;8.90;99.90
8862;DHT22;4799;50.996;4.754;2023-11-21T05:47:44;9.00;99.90
8862;DHT22;4799;50.996;4.754;2023-11-21T05:50:15;9.00;99.90
8862;DHT22;4799;50.996;4.754;2023-11-21T05:52:45;9.00;99.90
8862;DHT22;4799;50.996;4.754;2023-11-21T05:55:12;9.00;99.90
8862;DHT22;4799;50.996;4.754;2023-11-21T05:57:39;9.00;99.90
8862;DHT22;4799;50.996;4.754;2023-11-21T06:00:07;9.00;99.90
8862;DHT22;4799;50.996;4.754;2023-11-21T06:02:51;9.00;99.90
8862;DHT22;4799;50.996;4.754;2023-11-21T06:05:19;9.00;99.90
8862;DHT22;4799;50.996;4.754;2023-11-21T06:07:46;9.00;99.90
8862;DHT22;4799;50.996;4.754;2023-11-21T06:10:12;9.00;99.90
8862;DHT22;4799;50.996;4.754;2023-11-21T06:12:41;9.00;99.90
8862;DHT22;4799;50.996;4.754;2023-11-21T06:15:09;9.00;99.90
8862;DHT22;4799;50.996;4.754;2023-11-21T06:17:38;9.00;99.90
8862;DHT22;4799;50.996;4.754;2023-11-21T06:20:06;9.00;99.90
8862;DHT22;4799;50.996;4.754;2023-11-21T06:22:37;9.00;99.90
8862;DHT22;4799;50.996;4.754;2023-11-21T06:25:03;9.00;99.90
8862;DHT22;4799;50.996;4.754;2023-11-21T06:27:50;9.00;99.90
8862;DHT22;4799;50.996;4.754;2023-11-21T06:30:17;9.00;99.90
8862;DHT22;4799;50.996;4.754;2023-11-21T06:32:44;9.10;99.90
8862;DHT22;4799;50.996;4.754;2023-11-21T06:35:11;9.10;99.90
8862;DHT22;4799;50.996;4.754;2023-11-21T06:37:37;9.10;99.90
8862;DHT22;4799;50.996;4.754;2023-11-21T06:40:03;9.10;99.90
8862;DHT22;4799;50.996;4.754;2023-11-21T06:42:32;9.10;99.90
8862;DHT22;4799;50.996;4.754;2023-11-21T06:44:59;9.10;99.90
8862;DHT22;4799;50.996;4.754;2023-11-21T06:47:27;9.10;99.90
8862;DHT22;4799;50.996;4.754;2023-11-21T06:49:55;9.10;99.90
8862;DHT22;4799;50.996;4.754;2023-11-21T06:52:20;9.10;99.90
8862;DHT22;4799;50.996;4.754;2023-11-21T06:54:48;9.10;99.90
8862;DHT22;4799;50.996;4.754;2023-11-21T06:57:15;9.10;99.90
8862;DHT22;4799;50.996;4.754;2023-11-21T06:59:41;9.10;99.90
8862;DHT22;4799;50.996;4.754;2023-11-21T07:02:07;9.10;99.90
8862;DHT22;4799;50.996;4.754;2023-11-21T07:04:34;9.10;99.90
8862;DHT22;4799;50.996;4.754;2023-11-21T07:07:00;9.10;99.90
8862;DHT22;4799;50.996;4.754;2023-11-21T07:09:26;9.10;99.90
8862;DHT22;4799;50.996;4.754;2023-11-21T07:11:52;9.10;99.90
8862;DHT22;4799;50.996;4.754;2023-11-21T07:14:18;9.10;99.90
8862;DHT22;4799;50.996;4.754;2023-11-21T07:16:45;9.20;99.90
8862;DHT22;4799;50.996;4.754;2023-11-21T07:19:11;9.20;99.90
8862;DHT22;4799;50.996;4.754;2023-11-21T07:21:38;9.20;99.90
8862;DHT22;4799;50.996;4.754;2023-11-21T07:24:05;9.20;99.90
8862;DHT22;4799;50.996;4.754;2023-11-21T07:26:32;9.20;99.90
8862;DHT22;4799;50.996;4.754;2023-11-21T07:28:59;9.20;99.90
8862;DHT22;4799;50.996;4.754;2023-11-21T07:31:25;9.30;99.90
8862;DHT22;4799;50.996;4.754;2023-11-21T07:33:52;9.30;99.90
8862;DHT22;4799;50.996;4.754;2023-11-21T07:36:19;9.30;99.90
8862;DHT22;4799;50.996;4.754;2023-11-21T07:38:46;9.40;99.90
8862;DHT22;4799;50.996;4.754;2023-11-21T07:41:13;9.40;99.90
8862;DHT22;4799;50.996;4.754;2023-11-21T07:43:41;9.40;99.90
8862;DHT22;4799;50.996;4.754;2023-11-21T07:46:07;9.40;99.90
8862;DHT22;4799;50.996;4.754;2023-11-21T07:48:36;9.40;99.90
8862;DHT22;4799;50.996;4.754;2023-11-21T07:51:02;9.50;99.90
8862;DHT22;4799;50.996;4.754;2023-11-21T07:53:32;9.50;99.90
8862;DHT22;4799;50.996;4.754;2023-11-21T07:56:00;9.50;99.90
8862;DHT22;4799;50.996;4.754;2023-11-21T07:58:28;9.60;99.90
8862;DHT22;4799;50.996;4.754;2023-11-21T08:00:54;9.60;99.90
8862;DHT22;4799;50.996;4.754;2023-11-21T08:03:19;9.60;99.90
8862;DHT22;4799;50.996;4.754;2023-11-21T08:05:46;9.70;99.90
8862;DHT22;4799;50.996;4.754;2023-11-21T08:08:12;9.70;99.90
8862;DHT22;4799;50.996;4.754;2023-11-21T08:10:38;9.70;99.90
8862;DHT22;4799;50.996;4.754;2023-11-21T08:13:07;9.80;99.90
8862;DHT22;4799;50.996;4.754;2023-11-21T08:15:34;9.80;99.90
8862;DHT22;4799;50.996;4.754;2023-11-21T08:18:02;9.80;99.90
8862;DHT22;4799;50.996;4.754;2023-11-21T08:20:29;9.80;99.90
8862;DHT22;4799;50.996;4.754;2023-11-21T08:22:54;9.80;99.90
8862;DHT22;4799;50.996;4.754;2023-11-21T08:25:22;9.90;99.90
8862;DHT22;4799;50.996;4.754;2023-11-21T08:27:48;9.90;99.90
8862;DHT22;4799;50.996;4.754;2023-11-21T08:30:14;9.90;99.90
8862;DHT22;4799;50.996;4.754;2023-11-21T08:32:42;9.90;99.90
8862;DHT22;4799;50.996;4.754;2023-11-21T08:35:08;9.90;99.90
8862;DHT22;4799;50.996;4.754;2023-11-21T08:37:34;9.90;99.90
8862;DHT22;4799;50.996;4.754;2023-11-21T08:40:04;10.00;99.90
8862;DHT22;4799;50.996;4.754;2023-11-21T08:42:34;10.00;99.90
8862;DHT22;4799;50.996;4.754;2023-11-21T08:44:59;10.00;99.90
8862;DHT22;4799;50.996;4.754;2023-11-21T08:47:26;10.00;99.90
8862;DHT22;4799;50.996;4.754;2023-11-21T08:49:52;10.10;99.90
8862;DHT22;4799;50.996;4.754;2023-11-21T08:52:20;10.20;99.90
8862;DHT22;4799;50.996;4.754;2023-11-21T08:54:48;10.20;99.90
8862;DHT22;4799;50.996;4.754;2023-11-21T08:57:24;10.30;99.90
8862;DHT22;4799;50.996;4.754;2023-11-21T08:59:50;10.40;99.90
8862;DHT22;4799;50.996;4.754;2023-11-21T09:02:26;10.50;99.90
8862;DHT22;4799;50.996;4.754;2023-11-21T09:04:52;10.50;99.90
8862;DHT22;4799;50.996;4.754;2023-11-21T09:07:21;10.50;99.90
8862;DHT22;4799;50.996;4.754;2023-11-21T09:09:47;10.50;99.90
8862;DHT22;4799;50.996;4.754;2023-11-21T09:12:14;10.50;99.90
8862;DHT22;4799;50.996;4.754;2023-11-21T09:14:40;10.50;99.90
8862;DHT22;4799;50.996;4.754;2023-11-21T09:17:06;10.50;99.90
8862;DHT22;4799;50.996;4.754;2023-11-21T09:19:40;10.50;99.90
8862;DHT22;4799;50.996;4.754;2023-11-21T09:22:06;10.50;99.90
8862;DHT22;4799;50.996;4.754;2023-11-21T09:24:34;10.60;99.90
8862;DHT22;4799;50.996;4.754;2023-11-21T09:27:00;10.60;99.90
8862;DHT22;4799;50.996;4.754;2023-11-21T09:29:27;10.70;99.90
8862;DHT22;4799;50.996;4.754;2023-11-21T09:31:52;10.70;99.90
8862;DHT22;4799;50.996;4.754;2023-11-21T09:34:20;10.70;99.90
8862;DHT22;4799;50.996;4.754;2023-11-21T09:36:46;10.70;99.90
8862;DHT22;4799;50.996;4.754;2023-11-21T09:39:12;10.70;99.90
8862;DHT22;4799;50.996;4.754;2023-11-21T09:41:51;10.80;99.90
8862;DHT22;4799;50.996;4.754;2023-11-21T09:44:32;10.90;99.90
8862;DHT22;4799;50.996;4.754;2023-11-21T09:47:00;10.90;99.90
8862;DHT22;4799;50.996;4.754;2023-11-21T09:49:28;11.00;99.90
8862;DHT22;4799;50.996;4.754;2023-11-21T09:51:58;11.10;99.90
8862;DHT22;4799;50.996;4.754;2023-11-21T09:54:30;11.20;99.90
8862;DHT22;4799;50.996;4.754;2023-11-21T09:56:59;11.10;99.90
8862;DHT22;4799;50.996;4.754;2023-11-21T09:59:29;11.10;99.90
8862;DHT22;4799;50.996;4.754;2023-11-21T10:01:56;11.10;99.90
8862;DHT22;4799;50.996;4.754;2023-11-21T10:04:24;11.00;99.90
8862;DHT22;4799;50.996;4.754;2023-11-21T10:06:51;11.00;99.90
8862;DHT22;4799;50.996;4.754;2023-11-21T10:09:17;11.00;99.90
8862;DHT22;4799;50.996;4.754;2023-11-21T10:11:47;11.00;99.90
8862;DHT22;4799;50.996;4.754;2023-11-21T10:14:16;11.00;99.90
8862;DHT22;4799;50.996;4.754;2023-11-21T10:16:44;11.10;99.90
8862;DHT22;4799;50.996;4.754;2023-11-21T10:19:13;11.10;99.90
8862;DHT22;4799;50.996;4.754;2023-11-21T10:21:42;11.20;99.90
8862;DHT22;4799;50.996;4.754;2023-11-21T10:24:08;11.20;99.90
8862;DHT22;4799;50.996;4.754;2023-11-21T10:26:34;11.20;99.90
8862;DHT22;4799;50.996;4.754;2023-11-21T10:29:02;11.30;99.90
8862;DHT22;4799;50.996;4.754;2023-11-21T10:31:31;11.30;99.90
8862;DHT22;4799;50.996;4.754;2023-11-21T10:34:18;11.40;99.90
8862;DHT22;4799;50.996;4.754;2023-11-21T10:36:45;11.40;99.90
8862;DHT22;4799;50.996;4.754;2023-11-21T10:39:16;11.40;99.90
8862;DHT22;4799;50.996;4.754;2023-11-21T10:41:46;11.40;99.90
8862;DHT22;4799;50.996;4.754;2023-11-21T10:44:17;11.40;99.90
8862;DHT22;4799;50.996;4.754;2023-11-21T10:46:50;11.40;99.90
8862;DHT22;4799;50.996;4.754;2023-11-21T10:49:20;11.40;99.90
8862;DHT22;4799;50.996;4.754;2023-11-21T10:51:46;11.30;99.90
8862;DHT22;4799;50.996;4.754;2023-11-21T10:54:20;11.30;99.90
8862;DHT22;4799;50.996;4.754;2023-11-21T10:56:50;11.20;99.90
8862;DHT22;4799;50.996;4.754;2023-11-21T10:59:17;11.20;99.90
8862;DHT22;4799;50.996;4.754;2023-11-21T11:01:45;11.20;99.90
8862;DHT22;4799;50.996;4.754;2023-11-21T11:04:14;11.20;99.90
8862;DHT22;4799;50.996;4.754;2023-11-21T11:06:43;11.10;99.90
8862;DHT22;4799;50.996;4.754;2023-11-21T11:09:11;11.10;99.90
8862;DHT22;4799;50.996;4.754;2023-11-21T11:11:40;11.20;99.90
8862;DHT22;4799;50.996;4.754;2023-11-21T11:14:12;11.20;99.90
8862;DHT22;4799;50.996;4.754;2023-11-21T11:16:42;11.20;99.90
8862;DHT22;4799;50.996;4.754;2023-11-21T11:19:09;11.20;99.90
8862;DHT22;4799;50.996;4.754;2023-11-21T11:38:31;11.60;99.90
8862;DHT22;4799;50.996;4.754;2023-11-21T11:41:02;11.70;99.90
8862;DHT22;4799;50.996;4.754;2023-11-21T11:43:29;11.80;99.90
8862;DHT22;4799;50.996;4.754;2023-11-21T11:45:57;11.80;99.90
8862;DHT22;4799;50.996;4.754;2023-11-21T11:48:24;11.90;99.90
8862;DHT22;4799;50.996;4.754;2023-11-21T11:51:04;12.00;99.90
8862;DHT22;4799;50.996;4.754;2023-11-21T11:53:39;12.10;99.90
8862;DHT22;4799;50.996;4.754;2023-11-21T11:56:28;12.20;99.90
8862;DHT22;4799;50.996;4.754;2023-11-21T11:59:00;12.30;99.90
8862;DHT22;4799;50.996;4.754;2023-11-21T12:01:28;12.40;99.90
8862;DHT22;4799;50.996;4.754;2023-11-21T12:07:00;12.50;99.90
8862;DHT22;4799;50.996;4.754;2023-11-21T12:09:29;12.60;99.90
8862;DHT22;4799;50.996;4.754;2023-11-21T12:11:56;12.50;99.90
8862;DHT22;4799;50.996;4.754;2023-11-21T12:14:22;12.50;99.90
8862;DHT22;4799;50.996;4.754;2023-11-21T12:16:49;12.40;99.90
8862;DHT22;4799;50.996;4.754;2023-11-21T12:19:14;12.40;99.90
8862;DHT22;4799;50.996;4.754;2023-11-21T12:21:40;12.30;99.90
8862;DHT22;4799;50.996;4.754;2023-11-21T12:24:07;12.30;99.90
8862;DHT22;4799;50.996;4.754;2023-11-21T12:26:40;12.30;99.90
8862;DHT22;4799;50.996;4.754;2023-11-21T12:29:05;12.40;99.90
8862;DHT22;4799;50.996;4.754;2023-11-21T12:31:33;12.40;99.90
8862;DHT22;4799;50.996;4.754;2023-11-21T12:34:00;12.40;99.90
8862;DHT22;4799;50.996;4.754;2023-11-21T12:36:26;12.40;99.90
8862;DHT22;4799;50.996;4.754;2023-11-21T12:38:52;12.50;99.90
8862;DHT22;4799;50.996;4.754;2023-11-21T12:41:17;12.50;99.90
8862;DHT22;4799;50.996;4.754;2023-11-21T12:43:43;12.50;99.90
8862;DHT22;4799;50.996;4.754;2023-11-21T12:46:13;12.50;99.90
8862;DHT22;4799;50.996;4.754;2023-11-21T12:48:42;12.50;99.90
8862;DHT22;4799;50.996;4.754;2023-11-21T12:51:10;12.50;99.90
8862;DHT22;4799;50.996;4.754;2023-11-21T12:53:37;12.50;99.90
8862;DHT22;4799;50.996;4.754;2023-11-21T12:56:09;12.50;99.90
8862;DHT22;4799;50.996;4.754;2023-11-21T12:58:36;12.40;99.90
8862;DHT22;4799;50.996;4.754;2023-11-21T13:01:02;12.40;99.90
8862;DHT22;4799;50.996;4.754;2023-11-21T13:03:29;12.30;99.90
8862;DHT22;4799;50.996;4.754;2023-11-21T13:05:55;12.20;99.90
8862;DHT22;4799;50.996;4.754;2023-11-21T13:08:23;12.20;99.90
8862;DHT22;4799;50.996;4.754;2023-11-21T13:10:54;12.20;99.90
8862;DHT22;4799;50.996;4.754;2023-11-21T13:13:21;12.20;99.90
8862;DHT22;4799;50.996;4.754;2023-11-21T13:15:51;12.20;99.90
8862;DHT22;4799;50.996;4.754;2023-11-21T13:18:18;12.20;99.90
8862;DHT22;4799;50.996;4.754;2023-11-21T13:20:44;12.20;99.90
8862;DHT22;4799;50.996;4.754;2023-11-21T13:23:11;12.30;99.90
8862;DHT22;4799;50.996;4.754;2023-11-21T13:25:42;12.30;99.90
8862;DHT22;4799;50.996;4.754;2023-11-21T13:28:08;12.30;99.90
8862;DHT22;4799;50.996;4.754;2023-11-21T13:30:35;12.30;99.90
8862;DHT22;4799;50.996;4.754;2023-11-21T13:33:05;12.30;99.90
8862;DHT22;4799;50.996;4.754;2023-11-21T13:35:37;12.30;99.90
8862;DHT22;4799;50.996;4.754;2023-11-21T13:38:25;12.30;99.90
8862;DHT22;4799;50.996;4.754;2023-11-21T13:40:55;12.40;99.90
8862;DHT22;4799;50.996;4.754;2023-11-21T13:43:23;12.40;99.90
8862;DHT22;4799;50.996;4.754;2023-11-21T13:45:51;12.40;99.90
8862;DHT22;4799;50.996;4.754;2023-11-21T13:48:38;12.40;99.90
8862;DHT22;4799;50.996;4.754;2023-11-21T13:51:11;12.40;99.90
8862;DHT22;4799;50.996;4.754;2023-11-21T13:53:47;12.40;99.90
8862;DHT22;4799;50.996;4.754;2023-11-21T13:56:13;12.40;99.90
8862;DHT22;4799;50.996;4.754;2023-11-21T13:58:43;12.50;99.90
8862;DHT22;4799;50.996;4.754;2023-11-21T14:01:23;12.50;99.90
8862;DHT22;4799;50.996;4.754;2023-11-21T14:03:49;12.50;99.90
8862;DHT22;4799;50.996;4.754;2023-11-21T14:06:22;12.50;99.90
8862;DHT22;4799;50.996;4.754;2023-11-21T14:08:53;12.50;99.90
8862;DHT22;4799;50.996;4.754;2023-11-21T14:11:22;12.50;99.90
8862;DHT22;4799;50.996;4.754;2023-11-21T14:13:48;12.50;99.90
8862;DHT22;4799;50.996;4.754;2023-11-21T14:16:14;12.50;99.90
8862;DHT22;4799;50.996;4.754;2023-11-21T14:18:43;12.40;99.90
8862;DHT22;4799;50.996;4.754;2023-11-21T14:21:18;12.40;99.90
8862;DHT22;4799;50.996;4.754;2023-11-21T14:23:44;12.30;99.90
8862;DHT22;4799;50.996;4.754;2023-11-21T14:26:11;12.30;99.90
8862;DHT22;4799;50.996;4.754;2023-11-21T14:28:41;12.20;99.90
8862;DHT22;4799;50.996;4.754;2023-11-21T14:31:07;12.20;99.90
8862;DHT22;4799;50.996;4.754;2023-11-21T14:33:38;12.10;99.90
8862;DHT22;4799;50.996;4.754;2023-11-21T14:36:05;12.00;99.90
8862;DHT22;4799;50.996;4.754;2023-11-21T14:38:30;11.90;99.90
8862;DHT22;4799;50.996;4.754;2023-11-21T14:40:56;11.90;99.90
8862;DHT22;4799;50.996;4.754;2023-11-21T14:43:22;11.80;99.90
8862;DHT22;4799;50.996;4.754;2023-11-21T14:45:49;11.80;99.90
8862;DHT22;4799;50.996;4.754;2023-11-21T14:48:16;11.80;99.90
8862;DHT22;4799;50.996;4.754;2023-11-21T14:50:51;11.80;99.90
8862;DHT22;4799;50.996;4.754;2023-11-21T14:53:37;11.80;99.90
8862;DHT22;4799;50.996;4.754;2023-11-21T14:56:19;11.80;99.90
8862;DHT22;4799;50.996;4.754;2023-11-21T14:58:53;11.80;99.90
8862;DHT22;4799;50.996;4.754;2023-11-21T15:01:20;11.80;99.90
8862;DHT22;4799;50.996;4.754;2023-11-21T15:03:52;11.80;99.90
8862;DHT22;4799;50.996;4.754;2023-11-21T15:06:19;11.80;99.90
8862;DHT22;4799;50.996;4.754;2023-11-21T15:08:55;11.80;99.90
8862;DHT22;4799;50.996;4.754;2023-11-21T15:11:41;11.80;99.90
8862;DHT22;4799;50.996;4.754;2023-11-21T15:14:07;11.80;99.90
8862;DHT22;4799;50.996;4.754;2023-11-21T15:16:38;11.80;99.90
8862;DHT22;4799;50.996;4.754;2023-11-21T15:19:11;11.70;99.90
8862;DHT22;4799;50.996;4.754;2023-11-21T15:21:44;11.70;99.90
8862;DHT22;4799;50.996;4.754;2023-11-21T15:24:11;11.70;99.90
8862;DHT22;4799;50.996;4.754;2023-11-21T15:26:37;11.70;99.90
8862;DHT22;4799;50.996;4.754;2023-11-21T15:29:04;11.60;99.90
8862;DHT22;4799;50.996;4.754;2023-11-21T15:31:29;11.60;99.90
8862;DHT22;4799;50.996;4.754;2023-11-21T15:33:55;11.70;99.90
8862;DHT22;4799;50.996;4.754;2023-11-21T15:36:25;11.70;99.90
8862;DHT22;4799;50.996;4.754;2023-11-21T15:38:52;11.70;99.90
8862;DHT22;4799;50.996;4.754;2023-11-21T15:41:19;11.60;99.90
8862;DHT22;4799;50.996;4.754;2023-11-21T15:43:45;11.60;99.90
8862;DHT22;4799;50.996;4.754;2023-11-21T15:46:14;11.60;99.90
8862;DHT22;4799;50.996;4.754;2023-11-21T15:48:39;11.60;99.90
8862;DHT22;4799;50.996;4.754;2023-11-21T15:51:09;11.60;99.90
8862;DHT22;4799;50.996;4.754;2023-11-21T15:53:38;11.50;99.90
8862;DHT22;4799;50.996;4.754;2023-11-21T15:56:04;11.50;99.90
8862;DHT22;4799;50.996;4.754;2023-11-21T15:58:30;11.50;99.90
8862;DHT22;4799;50.996;4.754;2023-11-21T16:00:55;11.40;99.90
8862;DHT22;4799;50.996;4.754;2023-11-21T16:03:23;11.30;99.90
8862;DHT22;4799;50.996;4.754;2023-11-21T16:05:49;11.30;99.90
8862;DHT22;4799;50.996;4.754;2023-11-21T16:08:15;11.30;99.90
8862;DHT22;4799;50.996;4.754;2023-11-21T16:10:42;11.10;99.90
8862;DHT22;4799;50.996;4.754;2023-11-21T16:13:08;11.10;99.90
8862;DHT22;4799;50.996;4.754;2023-11-21T16:15:34;11.10;99.90
8862;DHT22;4799;50.996;4.754;2023-11-21T16:17:59;11.10;99.90
8862;DHT22;4799;50.996;4.754;2023-11-21T16:20:25;11.10;99.90
8862;DHT22;4799;50.996;4.754;2023-11-21T16:22:51;11.00;99.90
8862;DHT22;4799;50.996;4.754;2023-11-21T16:25:17;11.00;99.90
8862;DHT22;4799;50.996;4.754;2023-11-21T16:27:43;11.00;99.90
8862;DHT22;4799;50.996;4.754;2023-11-21T16:30:09;10.90;99.90
8862;DHT22;4799;50.996;4.754;2023-11-21T16:32:35;10.90;99.90